ADDS METAR Data INFO
IDs: Format: Raw Decoded Include TAF

Data at: 0039 UTC 23 Oct 2017

KTAZ 230015Z AUTO 36007KT 7SM RA OVC009 11/11 A3004 RMK AO2 P0006 T01100107
KTAZ 222355Z AUTO 36007KT 7SM RA BKN009 BKN026 OVC048 11/11 A3004 RMK AO2 P0005 60013 T01110107 10180 20111
KTAZ 222335Z AUTO 36010KT 10SM -RA SCT011 SCT025 OVC046 11/11 A3003 RMK AO2 T01110106
KTAZ 222315Z AUTO 36011KT 10SM -RA SCT011 OVC048 11/11 A3002 RMK AO2 T01110106
KTAZ 222255Z AUTO 35011KT 10SM -DZ BKN011 OVC042 11/11 A3003 RMK AO2 P0001 T01120108
KTAZ 222235Z AUTO 35011KT 10SM -RA SCT011 OVC040 11/11 A3003 RMK AO2 P0001 T01120107
KTAZ 222215Z AUTO 36012KT 10SM SCT031 OVC038 11/11 A3003 RMK AO2 T01130105
KTAZ 222155Z AUTO 02015G20KT 10SM -RA SCT009 SCT025 OVC031 11/11 A3002 RMK AO2 P0001 T01130107
KTAZ 222135Z AUTO 36013G20KT 10SM BKN009 OVC033 11/11 A3004 RMK AO2 P0001 T01120108
KTAZ 222115Z AUTO 34017G22KT 5SM RA OVC009 11/11 A3004 RMK AO2 P0001 T01110106
KTAZ 222055Z AUTO 34019G23KT 5SM RA OVC007 11/11 A3004 RMK AO2 P0001 60006 T01130110
KTAZ 222035Z AUTO 33013G18KT 2 1/2SM DZ BKN007 OVC012 12/11 A3005 RMK AO2 T01150111
KTAZ 222015Z AUTO 33015G21KT 4SM BR BKN007 OVC011 12/12 A3003 RMK AO2 T01210117
KTAZ 221955Z AUTO 33011KT 3SM -DZ OVC007 13/12 A3002 RMK AO2 P0002 T01260122
KTAZ 221935Z AUTO 32011G15KT 2 1/2SM DZ OVC005 13/13 A3001 RMK AO2 P0002 T01340130
KTAZ 221915Z AUTO 30013KT 2 1/2SM DZ OVC005 14/14 A3000 RMK AO2 P0001 T01400138
KTAZ 221855Z AUTO 29010G15KT 3SM DZ OVC005 15/14 A2999 RMK AO2 P0003 T01450142
KTAZ 221835Z AUTO 28009KT 3SM DZ OVC005 15/15 A2998 RMK AO2 P0003 T01510148
KTAZ 221815Z AUTO 28010KT 4SM RA BKN005 OVC015 16/16 A2997 RMK AO2 P0002 T01590155
KTAZ 221755Z AUTO 27007G16KT 7SM SCT007 SCT011 OVC020 19/16 A2996 RMK AO2 60003 T01870164 10210 20184
KTAZ 221735Z AUTO 18012G19KT 10SM BKN020 OVC025 21/17 A2995 RMK AO2 T02050170
KTAZ 221715Z AUTO 18015G23KT 10SM BKN019 OVC025 21/17 A2994 RMK AO2 T02090171
KTAZ 221655Z AUTO 18015G20KT 10SM OVC019 21/17 A2994 RMK AO2 T02060170
KTAZ 221635Z AUTO 17014G22KT 10SM OVC019 21/17 A2994 RMK AO2 T02050171
KTAZ 221615Z AUTO 17016G25KT 10SM OVC019 21/17 A2994 RMK AO2 T02070173
KTAZ 221555Z AUTO 18017G22KT 10SM OVC019 21/18 A2994 RMK AO2 T02070175
KTAZ 221535Z AUTO 18013G25KT 10SM OVC019 21/18 A2994 RMK AO2 T02050175
KTAZ 221515Z AUTO 17013G21KT 10SM OVC021 20/18 A2994 RMK AO2 T02040175
KTAZ 221455Z AUTO 17015G19KT 10SM OVC021 20/18 A2993 RMK AO2 P0001 60003 T02000177
KTAZ 221435Z AUTO 15011G16KT 10SM BKN023 OVC031 19/18 A2993 RMK AO2 P0001 T01930175
KTAZ 221415Z AUTO 16013G18KT 10SM -RA SCT023 BKN029 OVC037 19/17 A2994 RMK AO2 P0001 T01900173
KTAZ 221355Z AUTO 16013G18KT 10SM OVC025 20/17 A2995 RMK AO2 T01950165
KTAZ 221335Z AUTO 17012G17KT 10SM BKN027 19/16 A2995 RMK AO2 T01930164
KTAZ 221315Z AUTO 16012G17KT 10SM BKN027 19/16 A2994 RMK AO2 T01900164
KTAZ 221255Z AUTO 16011G17KT 10SM OVC025 19/17 A2993 RMK AO2 P0002 T01880165
KTAZ 221235Z AUTO 15012G18KT 10SM BKN025 BKN070 OVC095 19/17 A2992 RMK AO2 P0002 T01870165
KTAZ 221215Z AUTO 16010G19KT 5SM -RA BKN023 BKN034 OVC090 19/17 A2992 RMK AO2 P0002 T01860165
KTAZ 221155Z AUTO 16015G22KT 10SM BKN025 OVC070 20/16 A2993 RMK AO2 LTG DSNT NW T01950158 10195 20187
KTAZ 221135Z AUTO 16012G18KT 10SM SCT025 BKN070 OVC110 19/16 A2993 RMK AO2 LTG DSNT NW THRU SE T01920156
KTAZ 221115Z AUTO 16015G21KT 10SM SCT023 BKN060 OVC110 19/16 A2992 RMK AO2 LTG DSNT N T01930156
KTAZ 221055Z AUTO 16012G19KT 10SM SCT049 BKN060 OVC070 19/16 A2993 RMK AO2 LTG DSNT N AND NE T01930155
KTAZ 221035Z AUTO 16013G19KT 10SM SCT060 OVC070 19/16 A2992 RMK AO2 LTG DSNT N T01930155
KTAZ 221015Z AUTO 16012G17KT 10SM SCT070 BKN085 OVC100 19/15 A2992 RMK AO2 LTG DSNT N AND NW T01910152
KTAZ 220955Z AUTO 16015G23KT 10SM OVC095 19/15 A2992 RMK AO2 LTG DSNT N T01920152
KTAZ 220935Z AUTO 16013G22KT 10SM OVC095 19/15 A2993 RMK AO2 LTG DSNT W THRU N T01930151
KTAZ 220915Z AUTO 17015G19KT 10SM OVC095 19/15 A2993 RMK AO2 LTG DSNT N AND NW T01940151
KTAZ 220855Z AUTO 16012G17KT 10SM SCT075 OVC095 19/15 A2993 RMK AO2 LTG DSNT W AND NW T01920151
KTAZ 220835Z AUTO 16012G18KT 10SM SCT080 OVC095 19/15 A2993 RMK AO2 LTG DSNT NW T01910151
KTAZ 220815Z AUTO 15013G21KT 10SM SCT080 OVC095 19/15 A2993 RMK AO2 LTG DSNT NW T01910150
KTAZ 220755Z AUTO 16013G20KT 10SM BKN095 19/15 A2995 RMK AO2 T01900150
KTAZ 220735Z AUTO 16011G18KT 10SM BKN095 19/15 A2995 RMK AO2 T01880148
KTAZ 220715Z AUTO 15012G18KT 10SM SCT095 19/15 A2996 RMK AO2 T01900148
KTAZ 220655Z AUTO 16014G17KT 10SM CLR 19/15 A2997 RMK AO2 T01910148
KTAZ 220635Z AUTO 16011G16KT 10SM CLR 19/15 A2999 RMK AO2 T01910146
KTAZ 220615Z AUTO 16011G19KT 10SM CLR 19/14 A2999 RMK AO2 T01910144
KTAZ 220555Z AUTO 15008G14KT 10SM CLR 19/14 A3000 RMK AO2 LTG DSNT W T01920143 10213 20192 402560133
KTAZ 220535Z AUTO 15010G17KT 10SM CLR 20/14 A3000 RMK AO2 LTG DSNT W T01950142
KTAZ 220515Z AUTO 16010G15KT 10SM SCT095 20/14 A3001 RMK AO2 LTG DSNT W T01960141
KTAZ 220455Z AUTO 16010G14KT 10SM SCT095 20/14 A3002 RMK AO2 LTG DSNT W T02000141
KTAZ 220435Z AUTO 17010KT 10SM SCT060 SCT070 OVC085 20/14 A3002 RMK AO2 LTG DSNT W T02020140
KTAZ 220415Z AUTO 17010G18KT 10SM BKN060 OVC085 20/14 A3003 RMK AO2 LTG DSNT W T02040138
KTAZ 220355Z AUTO 17010G14KT 10SM SCT060 OVC085 20/14 A3003 RMK AO2 LTG DSNT SW AND W T02010136
KTAZ 220335Z AUTO 15010KT 10SM SCT060 OVC070 21/14 A3002 RMK AO2 LTG DSNT SW T02050135
KTAZ 220315Z AUTO 16010G14KT 10SM OVC060 21/14 A3002 RMK AO2 T02060135
KTAZ 220255Z AUTO 15011KT 10SM OVC060 21/13 A3002 RMK AO2 T02060132
KTAZ 220235Z AUTO 15010KT 10SM OVC060 21/13 A3002 RMK AO2 T02050132
KTAZ 220215Z AUTO 15011KT 10SM BKN060 20/13 A3001 RMK AO2 T02010133
KTAZ 220155Z AUTO 14010KT 10SM CLR 20/14 A3001 RMK AO2 T02010135
KTAZ 220135Z AUTO 16009KT 10SM CLR 20/14 A3001 RMK AO2 T02000136
KTAZ 220115Z AUTO 15008KT 10SM CLR 20/14 A3002 RMK AO2 T01990136
KTAZ 220055Z AUTO 15009G15KT 10SM CLR 20/14 A3001 RMK AO2 T02010138
KTAZ 220035Z AUTO 15009G15KT 10SM CLR 21/14 A3001 RMK AO2 LTG DSNT NW T02060139
KTAZ 220015Z AUTO 15010G14KT 10SM CLR 21/14 A3002 RMK AO2 T02100140
KTAZ 212355Z AUTO 16010KT 10SM CLR 21/14 A3002 RMK AO2 T02130140 10256 20213
KTAZ 212335Z AUTO 16010KT 10SM SCT100 22/14 A3002 RMK AO2 LTG DSNT NW T02200141
KTAZ 212315Z AUTO 17011G21KT 10SM BKN100 23/14 A3002 RMK AO2 T02270141
KTAZ 212255Z AUTO 17010G18KT 10SM BKN100 23/14 A3002 RMK AO2 T02320142
KTAZ 212235Z AUTO 17013G20KT 10SM BKN100 24/15 A3001 RMK AO2 T02380145
KTAZ 212215Z AUTO 18017G22KT 10SM SCT100 25/15 A3000 RMK AO2 T02450145
KTAZ 212155Z AUTO 17011G23KT 10SM CLR 25/15 A3000 RMK AO2 T02450150
KTAZ 212135Z AUTO 17018G25KT 10SM SCT120 25/15 A3000 RMK AO2 T02460151
KTAZ 212115Z AUTO 17015G23KT 10SM SCT120 24/15 A2999 RMK AO2 T02410151
KTAZ 212055Z AUTO 17016G22KT 10SM SCT120 25/15 A3000 RMK AO2 T02520150
KTAZ 212035Z AUTO 17018G25KT 10SM SCT120 25/15 A3000 RMK AO2 T02500147
KTAZ 212015Z AUTO 17014G19KT 10SM SCT120 25/15 A3000 RMK AO2 T02540148
KTAZ 211955Z AUTO 18018G23KT 10SM SCT120 25/15 A3001 RMK AO2 T02530150
KTAZ 211935Z AUTO 19013KT 10SM CLR 25/15 A3002 RMK AO2 T02510154
KTAZ 211915Z AUTO 17013G20KT 10SM CLR 24/15 A3002 RMK AO2 T02420151
KTAZ 211855Z AUTO 16017G22KT 10SM CLR 25/15 A3003 RMK AO2 T02470151
KTAZ 211835Z AUTO 18014G17KT 10SM CLR 23/15 A3005 RMK AO2 T02270151
KTAZ 211815Z AUTO 17012G21KT 10SM CLR 22/15 A3005 RMK AO2 T02230150
KTAZ 211755Z AUTO 17012G21KT 10SM CLR 22/15 A3006 RMK AO2 T02160151 10220 20136
KTAZ 211735Z AUTO 19008KT 10SM SCT041 SCT070 SCT090 21/15 A3008 RMK AO2 T02090151
KTAZ 211715Z AUTO 18012G19KT 10SM SCT043 SCT120 21/15 A3008 RMK AO2 T02110147
KTAZ 211655Z AUTO 19014G20KT 10SM SCT110 22/15 A3008 RMK AO2 T02190146
KTAZ 211635Z AUTO 19010KT 10SM OVC120 21/15 A3009 RMK AO2 T02140147
KTAZ 211615Z AUTO 17006KT 10SM BKN110 19/14 A3009 RMK AO2 LTG DSNT N T01910140
KTAZ 211555Z AUTO 17006KT 10SM SCT080 SCT110 18/13 A3009 RMK AO2 T01790130
KTAZ 211535Z AUTO 17006KT 10SM CLR 18/12 A3009 RMK AO2 T01760124
KTAZ 211515Z AUTO 17007KT 10SM CLR 17/12 A3009 RMK AO2 T01710122
KTAZ 211455Z AUTO 18008KT 10SM SCT100 SCT120 17/12 A3008 RMK AO2 T01650119
KTAZ 211435Z AUTO 17010G16KT 10SM SCT100 SCT120 17/11 A3008 RMK AO2 T01680114
KTAZ 211415Z AUTO 17009KT 10SM CLR 17/11 A3008 RMK AO2 T01660111
KTAZ 211355Z AUTO 16010KT 10SM CLR 16/11 A3008 RMK AO2 T01600107
KTAZ 211335Z AUTO 16009KT 10SM CLR 16/11 A3007 RMK AO2 T01560105
KTAZ 211315Z AUTO 16009KT 10SM CLR 16/10 A3007 RMK AO2 T01560102
KTAZ 211255Z AUTO 16010KT 10SM CLR 15/10 A3007 RMK AO2 T01540100